createdAt,value
2018-07-12T00:00:46.769Z,71.89
2018-07-12T00:03:14.087Z,71.77
2018-07-12T00:05:41.358Z,71.72
2018-07-12T00:08:08.652Z,71.66
2018-07-12T00:10:35.945Z,71.68
2018-07-12T00:13:03.464Z,71.97
2018-07-12T00:15:30.777Z,72.03
2018-07-12T00:17:58.055Z,71.32
2018-07-12T00:20:25.333Z,71.35
2018-07-12T00:22:52.632Z,72.04
2018-07-12T00:25:19.895Z,71.74
2018-07-12T00:27:47.183Z,71.94
2018-07-12T00:30:14.670Z,72.09
2018-07-12T00:32:41.927Z,72.20
2018-07-12T00:35:09.208Z,71.69
2018-07-12T00:37:36.493Z,71.97
2018-07-12T00:40:03.873Z,71.78
2018-07-12T00:42:31.158Z,71.99
2018-07-12T00:44:58.730Z,72.09
2018-07-12T00:47:26.380Z,72.13
2018-07-12T00:49:53.654Z,71.50
2018-07-12T00:52:20.946Z,71.93
2018-07-12T00:54:48.229Z,72.04
2018-07-12T00:57:15.514Z,71.78
2018-07-12T00:59:42.793Z,71.55
2018-07-12T01:02:10.087Z,71.74
2018-07-12T01:04:37.492Z,71.91
2018-07-12T01:07:05.023Z,71.92
2018-07-12T01:09:32.304Z,71.59
2018-07-12T01:11:59.621Z,70.17
2018-07-12T01:14:26.903Z,70.79
2018-07-12T01:16:54.214Z,71.17
2018-07-12T01:19:21.539Z,71.04
2018-07-12T01:21:48.794Z,70.43
2018-07-12T01:24:16.062Z,70.66
2018-07-12T01:26:43.357Z,71.00
2018-07-12T01:29:10.656Z,70.14
2018-07-12T01:31:37.927Z,70.69
2018-07-12T01:34:05.254Z,70.12
2018-07-12T01:36:32.545Z,70.17
2018-07-12T01:38:59.877Z,69.57
2018-07-12T01:41:27.162Z,69.77
2018-07-12T01:43:54.472Z,70.52
2018-07-12T01:46:21.805Z,70.48
2018-07-12T01:48:49.061Z,70.24
2018-07-12T01:51:16.380Z,70.56
2018-07-12T01:53:43.678Z,71.10
2018-07-12T01:56:10.953Z,71.16
2018-07-12T01:58:38.238Z,70.41
2018-07-12T02:01:05.522Z,71.38
2018-07-12T02:03:32.821Z,71.79
2018-07-12T02:06:00.122Z,71.89
2018-07-12T02:08:27.428Z,71.32
2018-07-12T02:10:54.721Z,72.04
2018-07-12T02:13:22.054Z,72.38
2018-07-12T02:15:49.356Z,71.81
2018-07-12T02:18:16.635Z,72.52
2018-07-12T02:20:43.934Z,72.33
2018-07-12T02:23:11.239Z,72.78
2018-07-12T02:25:38.517Z,72.53
2018-07-12T02:28:05.813Z,72.12
2018-07-12T02:30:33.104Z,71.94
2018-07-12T02:33:00.411Z,72.10
2018-07-12T02:35:27.734Z,72.35
2018-07-12T02:37:55.040Z,71.48
2018-07-12T02:40:22.391Z,71.92
2018-07-12T02:42:49.678Z,71.93
2018-07-12T02:45:16.955Z,72.25
2018-07-12T02:47:44.259Z,72.29
2018-07-12T02:50:11.619Z,71.96
2018-07-12T02:52:38.894Z,72.41
2018-07-12T02:55:06.165Z,72.36
2018-07-12T02:57:33.464Z,71.47
2018-07-12T03:00:00.761Z,71.58
2018-07-12T03:02:28.037Z,72.17
2018-07-12T03:04:55.341Z,72.28
2018-07-12T03:07:22.638Z,73.08
2018-07-12T03:09:49.905Z,72.86
2018-07-12T03:12:17.225Z,72.16
2018-07-12T03:14:44.495Z,71.75
2018-07-12T03:17:11.772Z,71.90
2018-07-12T03:19:39.073Z,72.32
2018-07-12T03:22:06.353Z,72.64
2018-07-12T03:24:33.638Z,72.49
2018-07-12T03:27:00.939Z,72.22
2018-07-12T03:29:28.314Z,72.27
2018-07-12T03:31:55.595Z,72.20
2018-07-12T03:34:22.897Z,72.05
2018-07-12T03:36:50.194Z,71.96
2018-07-12T03:39:17.488Z,71.47
2018-07-12T03:41:44.793Z,71.04
2018-07-12T03:44:12.142Z,70.79
2018-07-12T03:46:39.474Z,71.00
2018-07-12T03:49:06.765Z,70.51
2018-07-12T03:51:34.066Z,70.32
2018-07-12T03:54:01.343Z,69.58
2018-07-12T03:56:28.634Z,70.10
2018-07-12T03:58:55.925Z,68.71
2018-07-12T04:01:23.225Z,68.41
2018-07-12T04:03:50.544Z,68.55
2018-07-12T04:06:17.843Z,67.94
2018-07-12T04:08:45.147Z,68.26
2018-07-12T04:11:12.539Z,67.71
2018-07-12T04:13:39.893Z,67.08
2018-07-12T04:16:07.214Z,66.72
2018-07-12T04:18:34.623Z,66.53
2018-07-12T04:21:01.918Z,67.01
2018-07-12T04:23:29.202Z,66.15
2018-07-12T04:25:56.590Z,66.31
2018-07-12T04:28:23.886Z,65.87
2018-07-12T04:30:51.193Z,65.07
2018-07-12T04:33:18.502Z,64.94
2018-07-12T04:35:45.835Z,65.04
2018-07-12T04:38:13.140Z,64.25
2018-07-12T04:40:40.431Z,64.33
2018-07-12T04:43:07.712Z,64.31
2018-07-12T04:45:34.989Z,63.92
2018-07-12T04:48:02.325Z,63.21
2018-07-12T04:50:29.608Z,62.49
2018-07-12T04:52:56.914Z,62.90
2018-07-12T04:55:24.195Z,62.53
2018-07-12T04:57:51.472Z,62.23
2018-07-12T05:00:18.755Z,62.40
2018-07-12T05:02:46.073Z,62.39
2018-07-12T05:05:13.380Z,61.59
2018-07-12T05:07:40.707Z,61.86
2018-07-12T05:10:08.030Z,62.55
2018-07-12T05:12:35.301Z,61.94
2018-07-12T05:15:02.578Z,61.71
2018-07-12T05:17:29.876Z,61.83
2018-07-12T05:19:57.151Z,61.11
2018-07-12T05:22:24.448Z,61.25
2018-07-12T05:24:51.749Z,60.71
2018-07-12T05:27:19.016Z,60.50
2018-07-12T05:29:46.346Z,60.02
2018-07-12T05:32:14.069Z,59.62
2018-07-12T05:34:41.422Z,60.17
2018-07-12T05:37:09.997Z,59.36
2018-07-12T05:39:38.634Z,59.89
2018-07-12T05:42:07.315Z,59.23
2018-07-12T05:44:35.892Z,60.13
2018-07-12T05:47:04.549Z,59.48
2018-07-12T05:49:34.058Z,58.86
2018-07-12T05:52:02.706Z,58.98
2018-07-12T05:54:31.432Z,58.36
2018-07-12T05:57:00.039Z,58.08
2018-07-12T05:59:28.641Z,58.06
2018-07-12T06:02:08.089Z,56.80
2018-07-12T06:04:36.674Z,56.39
2018-07-12T06:07:05.421Z,56.37
2018-07-12T06:09:34.139Z,55.73
2018-07-12T06:12:02.717Z,56.26
2018-07-12T06:14:31.339Z,55.50
2018-07-12T06:16:59.958Z,55.27
2018-07-12T06:19:28.630Z,54.91
2018-07-12T06:21:57.206Z,54.69
2018-07-12T06:24:25.795Z,53.99
2018-07-12T06:26:54.421Z,54.43
2018-07-12T06:29:23.001Z,53.39
2018-07-12T06:31:51.671Z,53.69
2018-07-12T06:34:20.261Z,52.45
2018-07-12T06:36:48.892Z,51.94
2018-07-12T06:39:17.517Z,51.12
2018-07-12T06:41:46.160Z,51.79
2018-07-12T06:44:14.757Z,51.43
2018-07-12T06:46:43.370Z,51.18
2018-07-12T06:49:11.973Z,50.67
2018-07-12T06:51:40.566Z,49.00
2018-07-12T06:54:09.287Z,47.80
2018-07-12T06:56:37.923Z,48.27
2018-07-12T06:59:06.649Z,48.40
2018-07-12T07:01:35.270Z,46.91
2018-07-12T07:04:03.937Z,46.52
2018-07-12T07:06:32.685Z,45.84
2018-07-12T07:09:01.446Z,45.34
2018-07-12T07:11:30.229Z,45.44
2018-07-12T07:13:58.981Z,45.43
2018-07-12T07:16:27.794Z,45.64
2018-07-12T07:19:03.083Z,44.78
2018-07-12T07:21:31.819Z,44.44
2018-07-12T07:24:00.547Z,43.17
2018-07-12T07:26:29.240Z,44.00
2018-07-12T07:28:58.475Z,44.29
2018-07-12T07:31:27.106Z,42.72
2018-07-12T07:33:55.753Z,42.85
2018-07-12T07:36:24.389Z,42.81
2018-07-12T07:38:53.097Z,42.72
2018-07-12T07:41:21.729Z,42.58
2018-07-12T07:43:50.322Z,43.25
2018-07-12T07:46:19.028Z,41.90
2018-07-12T07:48:47.634Z,41.83
2018-07-12T07:51:16.256Z,41.88
2018-07-12T07:53:44.875Z,42.61
2018-07-12T07:56:13.569Z,42.44
2018-07-12T07:58:42.201Z,42.90
2018-07-12T08:01:10.983Z,43.56
2018-07-12T08:03:39.601Z,42.49
2018-07-12T08:06:08.216Z,41.85
2018-07-12T08:08:36.832Z,42.58
2018-07-12T08:11:05.456Z,42.00
2018-07-12T08:13:34.059Z,41.66
2018-07-12T08:16:02.666Z,41.70
2018-07-12T08:18:31.329Z,41.47
2018-07-12T08:20:59.946Z,41.96
2018-07-12T08:23:28.598Z,41.77
2018-07-12T08:25:57.239Z,42.04
2018-07-12T08:28:27.266Z,42.45
2018-07-12T08:30:56.094Z,42.11
2018-07-12T08:33:25.140Z,41.31
2018-07-12T08:35:53.875Z,41.86
2018-07-12T08:38:22.460Z,42.12
2018-07-12T08:40:52.771Z,42.68
2018-07-12T08:43:21.387Z,41.66
2018-07-12T08:45:49.966Z,43.43
2018-07-12T08:48:18.587Z,43.24
2018-07-12T08:50:47.186Z,42.85
2018-07-12T08:53:15.789Z,41.95
2018-07-12T08:55:44.439Z,42.92
2018-07-12T08:58:13.110Z,43.83
2018-07-12T09:00:41.846Z,43.41
2018-07-12T09:03:10.419Z,43.16
2018-07-12T09:05:39.075Z,44.05
2018-07-12T09:08:07.645Z,44.40
2018-07-12T09:10:36.217Z,42.93
2018-07-12T09:13:04.819Z,42.40
2018-07-12T09:15:33.657Z,42.40
2018-07-12T09:18:02.336Z,42.67
2018-07-12T09:20:30.940Z,42.52
2018-07-12T09:22:59.562Z,41.50
2018-07-12T09:25:28.242Z,41.31
2018-07-12T09:27:56.907Z,41.31
2018-07-12T09:30:25.521Z,41.11
2018-07-12T09:32:54.305Z,39.62
2018-07-12T09:35:22.921Z,40.71
2018-07-12T09:37:51.563Z,40.07
2018-07-12T09:40:20.286Z,41.12
2018-07-12T09:42:48.963Z,41.50
2018-07-12T09:45:17.607Z,41.31
2018-07-12T09:47:46.273Z,41.35
2018-07-12T09:50:14.930Z,41.69
2018-07-12T09:52:43.597Z,40.81
2018-07-12T09:55:12.286Z,41.37
2018-07-12T09:57:51.949Z,41.48
2018-07-12T10:00:24.788Z,41.58
2018-07-12T10:02:58.554Z,42.26
2018-07-12T10:05:32.458Z,42.01
2018-07-12T10:08:06.329Z,41.73
2018-07-12T10:10:39.168Z,40.39
2018-07-12T10:15:13.894Z,39.98
2018-07-12T10:17:48.681Z,39.98
2018-07-12T10:20:17.382Z,39.73
2018-07-12T10:22:46.089Z,39.85
2018-07-12T10:25:14.753Z,39.67
2018-07-12T10:27:43.488Z,40.02
2018-07-12T10:30:12.157Z,40.58
2018-07-12T10:32:40.886Z,39.95
2018-07-12T10:35:09.526Z,40.13
2018-07-12T10:37:38.243Z,39.75
2018-07-12T10:40:07.078Z,38.94
2018-07-12T10:42:35.765Z,38.64
2018-07-12T10:45:04.482Z,39.14
2018-07-12T10:47:33.146Z,36.96
2018-07-12T10:50:01.829Z,38.17
2018-07-12T10:52:30.481Z,38.79
2018-07-12T10:54:59.889Z,37.68
2018-07-12T10:57:29.305Z,38.07
2018-07-12T10:59:57.990Z,36.82
2018-07-12T11:02:26.763Z,36.72
2018-07-12T11:04:55.450Z,38.20
2018-07-12T11:07:24.065Z,38.19
2018-07-12T11:09:52.796Z,37.97
2018-07-12T11:12:21.507Z,37.17
2018-07-12T11:14:50.162Z,37.64
2018-07-12T11:17:18.938Z,37.63
2018-07-12T11:19:47.574Z,36.18
2018-07-12T11:22:16.264Z,36.24
2018-07-12T11:24:44.943Z,35.79
2018-07-12T11:27:13.586Z,35.16
2018-07-12T11:29:52.073Z,34.39
2018-07-12T11:32:21.023Z,34.47
2018-07-12T11:34:49.888Z,33.95
2018-07-12T11:37:21.575Z,32.92
2018-07-12T11:39:50.183Z,32.33
2018-07-12T11:42:18.854Z,32.54
2018-07-12T11:44:47.955Z,33.38
2018-07-12T11:47:16.553Z,32.83
2018-07-12T11:49:45.195Z,32.11
2018-07-12T11:52:13.875Z,32.48
2018-07-12T11:54:42.505Z,33.29
2018-07-12T11:57:11.153Z,32.46
2018-07-12T11:59:39.760Z,32.15
2018-07-12T12:02:08.393Z,32.23
2018-07-12T12:04:36.978Z,32.34
2018-07-12T12:07:05.590Z,32.80
2018-07-12T12:09:34.200Z,33.08
2018-07-12T12:12:02.794Z,33.58
2018-07-12T12:14:31.401Z,32.44
2018-07-12T12:17:00.129Z,32.39
2018-07-12T12:19:28.814Z,32.65
2018-07-12T12:21:57.371Z,31.46
2018-07-12T12:24:25.947Z,31.53
2018-07-12T12:26:54.561Z,32.30
2018-07-12T12:29:23.860Z,32.68
2018-07-12T12:31:52.653Z,33.06
2018-07-12T12:34:21.311Z,32.32
2018-07-12T12:36:49.930Z,32.34
2018-07-12T12:39:18.602Z,32.66
2018-07-12T12:41:47.335Z,32.13
2018-07-12T12:44:16.131Z,31.85
2018-07-12T12:46:44.784Z,31.76
2018-07-12T12:49:13.443Z,33.13
2018-07-12T12:51:42.058Z,32.61
2018-07-12T12:54:10.710Z,32.16
2018-07-12T12:56:39.308Z,30.69
2018-07-12T12:59:08.019Z,30.73
2018-07-12T13:01:36.626Z,30.49
2018-07-12T13:04:05.465Z,30.17
2018-07-12T13:06:34.096Z,29.22
2018-07-12T13:09:02.832Z,28.16
2018-07-12T13:11:31.421Z,28.89
2018-07-12T13:14:00.059Z,29.83
2018-07-12T13:16:28.709Z,31.31
2018-07-12T13:18:57.346Z,30.92
2018-07-12T13:21:26.750Z,30.12
2018-07-12T13:23:55.359Z,30.06
2018-07-12T13:26:24.023Z,27.90
2018-07-12T13:28:52.889Z,26.87
2018-07-12T13:31:22.223Z,27.64
2018-07-12T13:33:50.815Z,27.55
2018-07-12T13:36:19.635Z,28.53
2018-07-12T13:38:48.419Z,30.90
2018-07-12T13:41:17.136Z,31.25
2018-07-12T13:43:45.782Z,30.62
2018-07-12T13:46:14.434Z,31.93
2018-07-12T13:48:43.063Z,31.06
2018-07-12T13:51:11.748Z,30.58
2018-07-12T13:53:40.361Z,30.74
2018-07-12T13:56:09.214Z,29.98
2018-07-12T13:58:37.843Z,30.36
2018-07-12T14:01:06.811Z,31.59
2018-07-12T14:03:35.406Z,31.88
2018-07-12T14:06:05.463Z,29.86
2018-07-12T14:08:36.246Z,29.87
2018-07-12T14:11:05.850Z,30.65
2018-07-12T14:13:36.144Z,31.37
2018-07-12T14:16:08.183Z,31.12
2018-07-12T14:18:37.490Z,31.15
2018-07-12T14:21:07.372Z,31.50
2018-07-12T14:23:36.561Z,30.75
2018-07-12T14:26:05.550Z,30.96
2018-07-12T14:28:35.825Z,31.85
2018-07-12T14:31:05.488Z,29.81
2018-07-12T14:33:35.376Z,27.54
2018-07-12T14:36:04.764Z,26.90
2018-07-12T14:38:34.832Z,25.42
2018-07-12T14:41:04.716Z,27.29
2018-07-12T14:43:35.222Z,26.45
2018-07-12T14:46:06.952Z,27.14
2018-07-12T14:48:35.827Z,26.77
2018-07-12T14:51:05.914Z,24.99
2018-07-12T14:53:35.605Z,24.42
2018-07-12T14:56:05.441Z,24.20
2018-07-12T14:58:34.932Z,23.06
2018-07-12T15:01:04.096Z,25.17
2018-07-12T15:03:33.826Z,23.21
2018-07-12T15:06:03.600Z,20.90
2018-07-12T15:08:33.294Z,22.07
2018-07-12T15:11:02.978Z,21.91
2018-07-12T15:13:31.647Z,20.52
2018-07-12T15:16:00.321Z,20.53
2018-07-12T15:18:28.929Z,20.75
2018-07-12T15:20:57.561Z,21.64
2018-07-12T15:23:26.198Z,21.71
2018-07-12T15:25:54.834Z,20.88
2018-07-12T15:28:23.417Z,20.03
2018-07-12T15:30:52.795Z,22.00
2018-07-12T15:33:21.404Z,22.34
2018-07-12T15:35:50.023Z,23.47
2018-07-12T15:38:18.665Z,22.63
2018-07-12T15:40:47.447Z,22.59
2018-07-12T15:43:16.214Z,20.89
2018-07-12T15:45:44.905Z,20.63
2018-07-12T15:48:13.789Z,19.89
2018-07-12T15:50:42.453Z,19.81
2018-07-12T15:53:11.476Z,19.37
2018-07-12T15:55:40.032Z,21.95
2018-07-12T15:58:08.730Z,22.05
2018-07-12T16:00:37.386Z,21.28
2018-07-12T16:03:06.277Z,20.54
2018-07-12T16:05:34.882Z,19.45
2018-07-12T16:08:03.637Z,22.62
2018-07-12T16:10:32.257Z,23.48
2018-07-12T16:13:00.948Z,24.18
2018-07-12T16:15:29.561Z,22.78
2018-07-12T16:17:58.237Z,21.47
2018-07-12T16:20:26.866Z,21.44
2018-07-12T16:22:55.559Z,23.14
2018-07-12T16:25:24.152Z,23.91
2018-07-12T16:27:52.869Z,25.03
2018-07-12T16:30:21.500Z,25.38
2018-07-12T16:32:50.169Z,26.27
2018-07-12T16:35:18.843Z,28.37
2018-07-12T16:37:47.587Z,28.64
2018-07-12T16:40:16.291Z,28.85
2018-07-12T16:42:45.304Z,31.15
2018-07-12T16:45:13.925Z,27.98
2018-07-12T16:47:42.670Z,24.76
2018-07-12T16:50:11.375Z,22.91
2018-07-12T16:52:40.446Z,23.29
2018-07-12T16:55:09.179Z,22.80
2018-07-12T16:57:37.763Z,21.30
2018-07-12T17:00:06.426Z,21.53
2018-07-12T17:02:35.147Z,20.63
2018-07-12T17:05:03.930Z,20.32
2018-07-12T17:07:32.650Z,21.42
2018-07-12T17:10:01.522Z,20.85
2018-07-12T17:12:30.354Z,22.77
2018-07-12T17:14:59.032Z,23.92
2018-07-12T17:17:27.674Z,23.24
2018-07-12T17:19:56.358Z,23.16
2018-07-12T17:22:25.095Z,22.19
2018-07-12T17:24:53.929Z,22.20
2018-07-12T17:27:22.603Z,22.20
2018-07-12T17:29:51.297Z,22.26
2018-07-12T17:32:20.055Z,22.52
2018-07-12T17:34:48.693Z,22.71
2018-07-12T17:37:17.414Z,23.81
2018-07-12T17:39:46.082Z,22.90
2018-07-12T17:42:14.764Z,22.33
2018-07-12T17:44:43.439Z,22.67
2018-07-12T17:47:12.147Z,23.26
2018-07-12T17:49:40.804Z,24.17
2018-07-12T17:52:09.470Z,23.39
2018-07-12T17:54:38.128Z,23.13
2018-07-12T17:57:06.766Z,24.71
2018-07-12T17:59:35.455Z,26.62
2018-07-12T18:02:04.332Z,27.95
2018-07-12T18:04:33.060Z,29.36
2018-07-12T18:07:01.787Z,31.51
2018-07-12T18:09:30.504Z,32.12
2018-07-12T18:11:59.160Z,33.15
2018-07-12T18:14:27.981Z,34.64
2018-07-12T18:16:56.611Z,34.92
2018-07-12T18:19:25.424Z,35.14
2018-07-12T18:21:54.618Z,35.96
2018-07-12T18:24:23.338Z,37.05
2018-07-12T18:26:52.584Z,36.89
2018-07-12T18:29:21.401Z,37.62
2018-07-12T18:31:50.082Z,37.55
2018-07-12T18:34:19.249Z,38.27
2018-07-12T18:36:48.660Z,38.46
2018-07-12T18:39:17.341Z,38.78
2018-07-12T18:41:45.991Z,39.15
2018-07-12T18:44:14.679Z,39.24
2018-07-12T18:46:43.432Z,40.39
2018-07-12T18:49:12.224Z,40.67
2018-07-12T18:51:46.215Z,40.73
2018-07-12T18:54:14.918Z,40.86
2018-07-12T18:56:43.613Z,41.12
2018-07-12T18:59:12.311Z,41.37
2018-07-12T19:01:41.135Z,42.24
2018-07-12T19:04:09.876Z,42.25
2018-07-12T19:06:38.577Z,42.31
2018-07-12T19:09:08.785Z,42.31
2018-07-12T19:11:37.535Z,42.13
2018-07-12T19:14:06.222Z,42.50
2018-07-12T19:16:34.885Z,43.06
2018-07-12T19:19:03.686Z,43.57
2018-07-12T19:21:32.339Z,43.00
2018-07-12T19:24:01.120Z,43.79
2018-07-12T19:26:29.867Z,44.01
2018-07-12T19:28:58.644Z,44.07
2018-07-12T19:31:27.290Z,44.09
2018-07-12T19:33:56.034Z,44.83
2018-07-12T19:36:24.825Z,45.24
2018-07-12T19:38:53.588Z,44.98
2018-07-12T19:41:22.295Z,45.31
2018-07-12T19:43:50.990Z,45.54
2018-07-12T19:46:19.698Z,45.65
2018-07-12T19:48:48.563Z,45.64
2018-07-12T19:51:18.153Z,46.08
2018-07-12T19:53:46.934Z,45.66
2018-07-12T19:56:15.652Z,45.78
2018-07-12T19:58:45.350Z,46.22
2018-07-12T20:01:14.079Z,46.76
2018-07-12T20:03:42.775Z,46.87
2018-07-12T20:06:11.610Z,47.03
2018-07-12T20:08:40.616Z,46.70
2018-07-12T20:11:09.415Z,47.25
2018-07-12T20:13:38.407Z,47.39
2018-07-12T20:16:07.188Z,48.06
2018-07-12T20:18:35.852Z,48.09
2018-07-12T20:21:04.552Z,48.15
2018-07-12T20:23:34.768Z,48.41
2018-07-12T20:26:03.612Z,48.97
2018-07-12T20:28:32.979Z,49.30
2018-07-12T20:31:01.848Z,48.92
2018-07-12T20:33:30.576Z,49.23
2018-07-12T20:35:59.284Z,49.87
2018-07-12T20:38:27.959Z,49.60
2018-07-12T20:40:56.871Z,50.03
2018-07-12T20:43:25.504Z,50.10
2018-07-12T20:45:54.248Z,49.88
2018-07-12T20:48:22.950Z,50.01
2018-07-12T20:50:52.477Z,50.94
2018-07-12T20:53:21.224Z,50.76
2018-07-12T20:55:49.846Z,50.19
2018-07-12T20:58:18.718Z,50.82
2018-07-12T21:00:47.405Z,50.81
2018-07-12T21:03:16.089Z,51.29
2018-07-12T21:05:46.082Z,50.97
2018-07-12T21:08:14.765Z,51.71
2018-07-12T21:10:43.408Z,52.32
2018-07-12T21:13:12.192Z,52.54
2018-07-12T21:15:41.066Z,52.19
2018-07-12T21:18:11.049Z,52.85
2018-07-12T21:20:40.886Z,53.01
2018-07-12T21:23:09.570Z,53.87
2018-07-12T21:25:38.185Z,55.22
2018-07-12T21:28:07.620Z,55.06
2018-07-12T21:30:36.352Z,56.45
2018-07-12T21:33:05.034Z,56.50
2018-07-12T21:35:33.849Z,57.16
2018-07-12T21:38:02.496Z,57.13
2018-07-12T21:40:32.068Z,57.29
2018-07-12T21:43:00.748Z,57.58
2018-07-12T21:45:29.389Z,58.31
2018-07-12T21:47:58.040Z,57.97
2018-07-12T21:50:26.863Z,58.42
2018-07-12T21:52:55.569Z,58.72
2018-07-12T21:55:24.393Z,58.28
2018-07-12T21:57:53.140Z,58.56
2018-07-12T22:00:22.334Z,59.11
2018-07-12T22:02:51.122Z,58.92
2018-07-12T22:05:19.939Z,59.37
2018-07-12T22:08:14.433Z,59.59
2018-07-12T22:10:44.209Z,59.60
2018-07-12T22:13:13.289Z,60.14
2018-07-12T22:15:42.023Z,59.64
2018-07-12T22:18:10.902Z,59.57
2018-07-12T22:20:39.635Z,60.27
2018-07-12T22:23:08.368Z,59.63
2018-07-12T22:25:37.133Z,59.94
2018-07-12T22:28:05.782Z,59.89
2018-07-12T22:30:34.539Z,60.46
2018-07-12T22:33:03.807Z,60.71
2018-07-12T22:35:32.488Z,60.50
2018-07-12T22:38:02.682Z,61.27
2018-07-12T22:40:31.732Z,60.69
2018-07-12T22:43:00.358Z,61.04
2018-07-12T22:45:28.975Z,61.81
2018-07-12T22:47:57.728Z,61.31
2018-07-12T22:50:27.029Z,61.92
2018-07-12T22:52:55.701Z,62.09
2018-07-12T22:55:24.312Z,62.19
2018-07-12T22:57:52.930Z,61.88
2018-07-12T23:00:21.542Z,62.29
2018-07-12T23:02:50.188Z,62.69
2018-07-12T23:05:18.868Z,62.70
2018-07-12T23:07:47.464Z,62.89
2018-07-12T23:10:16.103Z,62.88
2018-07-12T23:12:44.687Z,63.45
2018-07-12T23:15:13.297Z,63.44
2018-07-12T23:17:42.588Z,63.38
2018-07-12T23:20:11.195Z,63.39
2018-07-12T23:22:40.466Z,63.29
2018-07-12T23:25:09.079Z,63.07
2018-07-12T23:27:37.710Z,63.53
2018-07-12T23:30:06.375Z,63.41
2018-07-12T23:32:34.996Z,63.14
2018-07-12T23:35:03.616Z,63.65
2018-07-12T23:37:32.249Z,64.28
2018-07-12T23:40:00.866Z,64.66
2018-07-12T23:42:29.473Z,64.13
2018-07-12T23:44:58.110Z,64.31
2018-07-12T23:47:27.278Z,64.85
2018-07-12T23:49:55.827Z,65.54
2018-07-12T23:52:24.409Z,65.67
2018-07-12T23:54:53.035Z,65.50
2018-07-12T23:57:21.637Z,66.10
2018-07-12T23:59:50.207Z,65.82
